Columbia — WYR2092 — position and weather

sailwx.info

Track history (hours):
 
Tides and Currents Weather Stations Pressure Air Temp Water Temp Dewpoint Dewpoint Depression Visibility Wind Speed Wind Dir Waves Ship Positions

Columbia

Owner: ALASKA, STATE OF, ANCHORAGE, AK. More information available from US FCC via Universal Licensing System and Coast Guard Vessel Documentation Center.

Last reported at 2016-Jun-25 01:33 UTC. Time now 2016-Jun-25 01:49 UTC.
Position N 48°44' W 122°31'.

Type: Ship. MMSI: 367144000.

Date/timePositionNaut miles runAvg speedWind from/ knotsBaromVisibWave heightAir tempDewpointWater temp
2016-Jun-25 01:33N 48°44' W 122°31'0 0.0
2016-Jun-24 14:33N 48°44' W 122°31'9 8.8
2016-Jun-24 13:33N 48°41' W 122°44'1515.1
2016-Jun-24 12:33N 48°51' W 123°01'1615.7
2016-Jun-24 11:34N 49°01' W 123°20'1515.2
2016-Jun-24 10:34N 49°12' W 123°35'1515.2
2016-Jun-24 09:34N 49°22' W 123°53'1515.3
2016-Jun-24 08:34N 49°25' W 124°16'1515.1
2016-Jun-24 07:34N 49°35' W 124°34'4314.3
2016-Jun-24 04:34N 50°07' W 125°18'1010.4
2016-Jun-24 03:33N 50°16' W 125°24'5515.6
2016-Jun-24 00:04N 50°36' W 126°44'916.5
2016-Jun-23 23:30N 50°42' W 126°55'1516.2
2016-Jun-23 22:34N 50°51' W 127°14'1716.5
2016-Jun-23 21:33N 51°00' W 127°36'1716.8
2016-Jun-23 20:32N 51°13' W 127°55'1515.8
2016-Jun-23 19:33N 51°28' W 127°50'2610.2
2016-Jun-23 17:00N 51°54' W 127°54'23614.7 180 / 111010.0 2.2
2016-Jun-23 01:00N 55°12' W 131°30'68 8.4 310 / 91014.8 5.4 20.0
2016-Jun-22 17:00N 56°06' W 132°42'122 9.4 320 / 51014.0 16.1
2016-Jun-22 04:00N 57°30' W 135°24'20 2.0 070 / 131012.010.8 0.513.9
2016-Jun-21 18:00N 57°24' W 134°48'110 9.1 010 / 111012.0 5.4 13.9
2016-Jun-21 06:00N 59°12' W 135°24'59 4.6 160 / 21015.710.8 13.3
2016-Jun-20 17:00N 58°18' W 134°36'205 8.9 140 / 21020.6 5.4 15.0
2016-Jun-19 18:00N 55°18' W 131°36'26211.6 140 / 141025.710.8 14.4
2016-Jun-18 19:24N 51°33' W 127°52'1416.2
2016-Jun-18 18:34N 51°19' W 127°52'1515.2
2016-Jun-18 17:34N 51°05' W 127°43'1616.1
2016-Jun-18 16:33N 50°54' W 127°23'1933.9
2016-Jun-18 16:00N 50°42' W 127°00'4 8.5 120 / 31016.6 2.2 15.0
2016-Jun-18 15:33N 50°45' W 127°02'5315.6
2016-Jun-18 12:10N 50°23' W 125°47'1316.6
2016-Jun-18 11:24N 50°20' W 125°27'1315.6
2016-Jun-18 10:33N 50°08' W 125°21'1313.3
2016-Jun-18 09:34N 49°57' W 125°08'1716.6
2016-Jun-18 08:33N 49°46' W 124°50'1616.4
2016-Jun-18 07:34N 49°34' W 124°32'1616.0
2016-Jun-18 06:34N 49°25' W 124°12'1716.7
2016-Jun-18 05:34N 49°21' W 123°47'1616.4
2016-Jun-18 04:34N 49°09' W 123°30'1616.1
2016-Jun-18 03:34N 48°58' W 123°12'2544.9
2016-Jun-18 03:00N 48°42' W 122°42'920.0 160 / 91016.027.0 15.0
2016-Jun-18 02:33N 48°48' W 122°52'1514.8
2016-Jun-18 01:34N 48°39' W 122°34'5 0.8
2016-Jun-17 19:13N 48°43' W 122°31'0 0.0
2016-Jun-17 18:31N 48°43' W 122°31'1 0.4
2016-Jun-17 15:00N 48°42' W 122°30'2 4.0 1019.227.0 17.2
2016-Jun-17 14:33N 48°43' W 122°32'8 8.5
2016-Jun-17 13:33N 48°41' W 122°44'1515.0
2016-Jun-17 12:33N 48°51' W 123°01'1515.4
2016-Jun-17 11:34N 49°01' W 123°19'1515.4
2016-Jun-17 10:33N 49°12' W 123°35'1515.1
2016-Jun-17 09:33N 49°23' W 123°52'1515.4
2016-Jun-17 08:34N 49°25' W 124°15'1514.9
2016-Jun-17 07:34N 49°34' W 124°33'1515.4
2016-Jun-17 06:33N 49°45' W 124°50'1615.9
2016-Jun-17 05:33N 49°57' W 125°08'3 5.0
2016-Jun-17 05:00N 49°54' W 125°06'1636.5 300 / 61018.910.8 11.7
2016-Jun-17 04:34N 50°07' W 125°20'1613.8
2016-Jun-17 03:24N 50°21' W 125°32'6015.4
2016-Jun-16 23:31N 50°44' W 126°58'1717.2
2016-Jun-16 22:33N 50°53' W 127°20'1616.1
2016-Jun-16 21:33N 51°03' W 127°40'1615.1
2016-Jun-16 20:30N 51°18' W 127°51'23552.1
2016-Jun-16 16:00N 55°12' W 128°18'106 7.6 100 / 161012.3 2.2 9.4
2016-Jun-16 02:00N 55°12' W 131°24'9 1.3 110 / 161009.3 5.4 12.8
2016-Jun-15 19:00N 55°18' W 131°36'47 7.9 140 / 131009.010.8 17.8
2016-Jun-15 13:00N 55°54' W 132°30'   130 / 151004.010.8 0.511.7
Track history (hours):
 
Tides and Currents Weather Stations Pressure Air Temp Water Temp Dewpoint Dewpoint Depression Visibility Wind Speed Wind Dir Waves Ship Positions

Columbia

Owner: ALASKA, STATE OF, ANCHORAGE, AK. More information available from US FCC via Universal Licensing System and Coast Guard Vessel Documentation Center.

Last reported at 2016-Jun-25 01:33 UTC. Time now 2016-Jun-25 01:49 UTC.
Position N 48°44' W 122°31'.

Type: Ship. MMSI: 367144000.

Date/timePositionNaut miles runAvg speedWind from/ knotsBaromVisibWave heightAir tempDewpointWater temp
2016-Jun-25 01:33N 48°44' W 122°31'0 0.0
2016-Jun-24 14:33N 48°44' W 122°31'9 8.8
2016-Jun-24 13:33N 48°41' W 122°44'1515.1
2016-Jun-24 12:33N 48°51' W 123°01'1615.7
2016-Jun-24 11:34N 49°01' W 123°20'1515.2
2016-Jun-24 10:34N 49°12' W 123°35'1515.2
2016-Jun-24 09:34N 49°22' W 123°53'1515.3
2016-Jun-24 08:34N 49°25' W 124°16'1515.1
2016-Jun-24 07:34N 49°35' W 124°34'4314.3
2016-Jun-24 04:34N 50°07' W 125°18'1010.4
2016-Jun-24 03:33N 50°16' W 125°24'5515.6
2016-Jun-24 00:04N 50°36' W 126°44'916.5
2016-Jun-23 23:30N 50°42' W 126°55'1516.2
2016-Jun-23 22:34N 50°51' W 127°14'1716.5
2016-Jun-23 21:33N 51°00' W 127°36'1716.8
2016-Jun-23 20:32N 51°13' W 127°55'1515.8
2016-Jun-23 19:33N 51°28' W 127°50'2610.2
2016-Jun-23 17:00N 51°54' W 127°54'23614.7 180 / 111010.0 2.2
2016-Jun-23 01:00N 55°12' W 131°30'68 8.4 310 / 91014.8 5.4 20.0
2016-Jun-22 17:00N 56°06' W 132°42'122 9.4 320 / 51014.0 16.1
2016-Jun-22 04:00N 57°30' W 135°24'20 2.0 070 / 131012.010.8 0.513.9
2016-Jun-21 18:00N 57°24' W 134°48'110 9.1 010 / 111012.0 5.4 13.9
2016-Jun-21 06:00N 59°12' W 135°24'59 4.6 160 / 21015.710.8 13.3
2016-Jun-20 17:00N 58°18' W 134°36'205 8.9 140 / 21020.6 5.4 15.0
2016-Jun-19 18:00N 55°18' W 131°36'26211.6 140 / 141025.710.8 14.4
2016-Jun-18 19:24N 51°33' W 127°52'1416.2
2016-Jun-18 18:34N 51°19' W 127°52'1515.2
2016-Jun-18 17:34N 51°05' W 127°43'1616.1
2016-Jun-18 16:33N 50°54' W 127°23'1933.9
2016-Jun-18 16:00N 50°42' W 127°00'4 8.5 120 / 31016.6 2.2 15.0
2016-Jun-18 15:33N 50°45' W 127°02'5315.6
2016-Jun-18 12:10N 50°23' W 125°47'1316.6
2016-Jun-18 11:24N 50°20' W 125°27'1315.6
2016-Jun-18 10:33N 50°08' W 125°21'1313.3
2016-Jun-18 09:34N 49°57' W 125°08'1716.6
2016-Jun-18 08:33N 49°46' W 124°50'1616.4
2016-Jun-18 07:34N 49°34' W 124°32'1616.0
2016-Jun-18 06:34N 49°25' W 124°12'1716.7
2016-Jun-18 05:34N 49°21' W 123°47'1616.4
2016-Jun-18 04:34N 49°09' W 123°30'1616.1
2016-Jun-18 03:34N 48°58' W 123°12'2544.9
2016-Jun-18 03:00N 48°42' W 122°42'920.0 160 / 91016.027.0 15.0
2016-Jun-18 02:33N 48°48' W 122°52'1514.8
2016-Jun-18 01:34N 48°39' W 122°34'5 0.8
2016-Jun-17 19:13N 48°43' W 122°31'0 0.0
2016-Jun-17 18:31N 48°43' W 122°31'1 0.4
2016-Jun-17 15:00N 48°42' W 122°30'2 4.0 1019.227.0 17.2
2016-Jun-17 14:33N 48°43' W 122°32'8 8.5
2016-Jun-17 13:33N 48°41' W 122°44'1515.0
2016-Jun-17 12:33N 48°51' W 123°01'1515.4
2016-Jun-17 11:34N 49°01' W 123°19'1515.4
2016-Jun-17 10:33N 49°12' W 123°35'1515.1
2016-Jun-17 09:33N 49°23' W 123°52'1515.4
2016-Jun-17 08:34N 49°25' W 124°15'1514.9
2016-Jun-17 07:34N 49°34' W 124°33'1515.4
2016-Jun-17 06:33N 49°45' W 124°50'1615.9
2016-Jun-17 05:33N 49°57' W 125°08'3 5.0
2016-Jun-17 05:00N 49°54' W 125°06'1636.5 300 / 61018.910.8 11.7
2016-Jun-17 04:34N 50°07' W 125°20'1613.8
2016-Jun-17 03:24N 50°21' W 125°32'6015.4
2016-Jun-16 23:31N 50°44' W 126°58'1717.2
2016-Jun-16 22:33N 50°53' W 127°20'1616.1
2016-Jun-16 21:33N 51°03' W 127°40'1615.1
2016-Jun-16 20:30N 51°18' W 127°51'23552.1
2016-Jun-16 16:00N 55°12' W 128°18'106 7.6 100 / 161012.3 2.2 9.4
2016-Jun-16 02:00N 55°12' W 131°24'9 1.3 110 / 161009.3 5.4 12.8
2016-Jun-15 19:00N 55°18' W 131°36'47 7.9 140 / 131009.010.8 17.8
2016-Jun-15 13:00N 55°54' W 132°30'   130 / 151004.010.8 0.511.7

Dump ship's entire track history